createdAt,value
2022-09-03T00:04:29.959Z,12.35
2022-09-03T00:09:41.538Z,12.42
2022-09-03T00:14:51.380Z,12.33
2022-09-03T00:20:00.047Z,12.29
2022-09-03T00:25:07.085Z,12.24
2022-09-03T00:30:13.847Z,12.19
2022-09-03T00:35:26.358Z,12.10
2022-09-03T00:41:01.839Z,11.99
2022-09-03T00:46:18.336Z,11.92
2022-09-03T00:51:34.839Z,11.75
2022-09-03T00:56:47.527Z,11.66
2022-09-03T01:02:02.321Z,11.45
2022-09-03T01:07:16.023Z,11.41
2022-09-03T01:12:30.291Z,11.37
2022-09-03T01:17:46.440Z,11.37
2022-09-03T01:23:36.010Z,11.30
2022-09-03T01:28:56.636Z,11.20
2022-09-03T01:34:11.518Z,11.09
2022-09-03T01:39:24.652Z,11.02
2022-09-03T01:44:39.520Z,10.99
2022-09-03T01:49:50.065Z,11.00
2022-09-03T01:55:07.197Z,10.93
2022-09-03T02:00:13.929Z,10.88
2022-09-03T02:05:19.472Z,10.90
2022-09-03T02:10:30.271Z,10.71
2022-09-03T02:15:37.529Z,10.70
2022-09-03T02:20:41.006Z,10.52
2022-09-03T02:25:49.228Z,10.44
2022-09-03T02:30:53.754Z,10.39
2022-09-03T02:35:56.971Z,10.25
2022-09-03T02:40:59.961Z,10.20
2022-09-03T02:46:08.085Z,10.20
2022-09-03T02:51:14.085Z,10.07
2022-09-03T02:56:17.512Z,10.03
2022-09-03T03:01:24.079Z,9.89
2022-09-03T03:06:27.540Z,9.87
2022-09-03T03:11:30.614Z,9.77
2022-09-03T03:16:35.002Z,9.63
2022-09-03T03:21:38.051Z,9.61
2022-09-03T03:26:41.267Z,9.61
2022-09-03T03:31:45.693Z,9.52
2022-09-03T03:36:48.666Z,9.53
2022-09-03T03:41:52.516Z,9.45
2022-09-03T03:46:56.852Z,9.40
2022-09-03T03:51:59.799Z,9.39
2022-09-03T03:57:03.072Z,9.11
2022-09-03T04:02:07.442Z,9.25
2022-09-03T04:07:10.999Z,9.26
2022-09-03T04:12:13.958Z,9.10
2022-09-03T04:17:21.054Z,9.02
2022-09-03T04:22:29.833Z,8.99
2022-09-03T04:27:33.172Z,8.97
2022-09-03T04:32:56.189Z,8.94
2022-09-03T04:37:59.305Z,8.92
2022-09-03T04:43:02.403Z,8.90
2022-09-03T04:48:10.477Z,8.59
2022-09-03T04:53:13.524Z,8.71
2022-09-03T04:58:16.627Z,8.98
2022-09-03T05:03:22.072Z,9.08
2022-09-03T05:08:26.527Z,9.44
2022-09-03T05:13:29.667Z,9.93
2022-09-03T05:18:35.818Z,10.21
2022-09-03T05:23:40.881Z,10.25
2022-09-03T05:28:45.219Z,10.34
2022-09-03T05:33:51.298Z,10.63
2022-09-03T05:38:55.245Z,10.77
2022-09-03T05:43:59.867Z,10.92
2022-09-03T05:49:06.414Z,11.10
2022-09-03T05:54:09.991Z,10.85
2022-09-03T05:59:13.871Z,10.47
2022-09-03T06:04:18.309Z,10.81
2022-09-03T06:09:23.838Z,11.52
2022-09-03T06:14:26.881Z,11.80
2022-09-03T06:19:31.286Z,11.99
2022-09-03T06:24:34.568Z,12.69
2022-09-03T06:29:38.952Z,12.72
2022-09-03T06:34:43.594Z,13.48
2022-09-03T06:39:46.648Z,14.43
2022-09-03T06:44:51.381Z,14.51
2022-09-03T06:49:55.811Z,14.89
2022-09-03T06:54:58.827Z,15.42
2022-09-03T07:00:02.651Z,15.63
2022-09-03T07:05:07.718Z,15.02
2022-09-03T07:10:14.064Z,16.11
2022-09-03T07:15:17.112Z,15.92
2022-09-03T07:20:22.354Z,15.84
2022-09-03T07:25:27.332Z,16.40
2022-09-03T07:30:30.303Z,16.35
2022-09-03T07:35:37.600Z,16.51
2022-09-03T07:40:40.593Z,16.87
2022-09-03T07:45:46.521Z,16.95
2022-09-03T07:50:51.463Z,16.40
2022-09-03T07:55:54.449Z,17.39
2022-09-03T08:00:58.320Z,17.72
2022-09-03T08:06:04.379Z,17.61
2022-09-03T08:11:10.056Z,17.38
2022-09-03T08:16:14.161Z,18.01
2022-09-03T08:21:20.208Z,18.13
2022-09-03T08:26:23.955Z,18.12
2022-09-03T08:31:28.264Z,18.78
2022-09-03T08:36:33.938Z,18.63
2022-09-03T08:41:50.360Z,18.22
2022-09-03T08:46:59.972Z,18.36
2022-09-03T08:52:07.556Z,17.85
2022-09-03T08:57:11.084Z,18.46
2022-09-03T09:02:26.349Z,18.54
2022-09-03T09:07:38.863Z,18.89
2022-09-03T09:12:51.668Z,19.35
2022-09-03T09:18:09.861Z,19.48
2022-09-03T09:23:21.217Z,19.65
2022-09-03T09:28:26.863Z,18.63
2022-09-03T09:33:32.234Z,18.73
2022-09-03T09:38:40.890Z,19.98
2022-09-03T09:43:45.479Z,20.15
2022-09-03T09:48:52.578Z,20.59
2022-09-03T09:54:05.116Z,19.47
2022-09-03T09:59:10.180Z,19.77
2022-09-03T10:04:14.938Z,20.06
2022-09-03T10:09:21.026Z,20.72
2022-09-03T10:14:35.132Z,20.63
2022-09-03T10:20:05.167Z,20.48
2022-09-03T10:25:11.109Z,20.69
2022-09-03T10:30:16.106Z,20.15
2022-09-03T10:35:28.529Z,20.99
2022-09-03T10:40:39.225Z,20.73
2022-09-03T10:45:53.250Z,20.40
2022-09-03T10:51:00.349Z,20.02
2022-09-03T10:56:09.521Z,20.99
2022-09-03T11:01:22.425Z,21.29
2022-09-03T11:06:29.545Z,21.33
2022-09-03T11:11:39.185Z,20.83
2022-09-03T11:16:49.229Z,21.26
2022-09-03T11:21:53.240Z,21.64
2022-09-03T11:27:07.032Z,20.57
2022-09-03T11:32:19.381Z,21.16
2022-09-03T11:37:24.846Z,21.81
2022-09-03T11:42:36.907Z,21.68
2022-09-03T11:47:42.220Z,21.96
2022-09-03T11:52:45.220Z,21.43
2022-09-03T11:57:49.742Z,21.65
2022-09-03T12:02:59.118Z,22.30
2022-09-03T12:08:28.358Z,21.36
2022-09-03T12:13:47.865Z,22.08
2022-09-03T12:18:53.205Z,21.21
2022-09-03T12:23:58.423Z,21.66
2022-09-03T12:29:03.016Z,21.43
2022-09-03T12:34:17.244Z,20.94
2022-09-03T12:40:04.701Z,21.81
2022-09-03T12:44:48.653Z,21.43
2022-09-03T12:49:53.472Z,21.49
2022-09-03T12:55:00.820Z,21.71
2022-09-03T13:00:09.223Z,21.95
2022-09-03T13:05:18.131Z,22.09
2022-09-03T13:10:28.229Z,22.17
2022-09-03T13:15:32.670Z,21.58
2022-09-03T13:20:44.888Z,22.14
2022-09-03T13:26:01.639Z,21.73
2022-09-03T13:31:26.974Z,22.11
2022-09-03T13:36:35.392Z,21.82
2022-09-03T13:41:45.001Z,22.65
2022-09-03T13:46:56.521Z,22.29
2022-09-03T13:52:04.034Z,22.24
2022-09-03T13:57:18.311Z,22.08
2022-09-03T14:02:34.506Z,22.40
2022-09-03T14:07:52.500Z,22.10
2022-09-03T14:13:07.230Z,21.84
2022-09-03T14:18:20.058Z,22.30
2022-09-03T14:23:34.167Z,21.96
2022-09-03T14:28:38.939Z,21.69
2022-09-03T14:33:57.902Z,22.08
2022-09-03T14:39:18.723Z,21.89
2022-09-03T14:44:49.733Z,22.04
2022-09-03T14:50:06.148Z,22.31
2022-09-03T14:55:21.112Z,22.50
2022-09-03T15:00:34.791Z,21.78
2022-09-03T15:05:54.976Z,22.01
2022-09-03T15:11:16.650Z,21.90
2022-09-03T15:16:42.935Z,22.19
2022-09-03T15:22:04.155Z,21.81
2022-09-03T15:27:20.750Z,21.70
2022-09-03T15:32:39.328Z,21.95
2022-09-03T15:37:49.057Z,21.97
2022-09-03T15:42:56.635Z,21.74
2022-09-03T15:48:11.035Z,21.70
2022-09-03T15:53:25.534Z,21.80
2022-09-03T15:58:34.637Z,21.56
2022-09-03T16:03:56.134Z,21.58
2022-09-03T16:09:03.305Z,21.70
2022-09-03T16:14:12.023Z,21.55
2022-09-03T16:19:19.629Z,21.46
2022-09-03T16:24:27.180Z,21.17
2022-09-03T16:29:32.055Z,21.01
2022-09-03T16:34:49.011Z,20.91
2022-09-03T16:40:03.209Z,20.74
2022-09-03T16:45:17.707Z,20.48
2022-09-03T16:50:31.874Z,20.50
2022-09-03T16:55:57.167Z,20.32
2022-09-03T17:01:13.349Z,20.20
2022-09-03T17:06:50.459Z,19.87
2022-09-03T17:12:05.251Z,19.45
2022-09-03T17:17:19.927Z,19.45
2022-09-03T17:22:39.845Z,19.38
2022-09-03T17:27:51.127Z,19.18
2022-09-03T17:33:25.601Z,18.96
2022-09-03T17:38:45.624Z,18.86
2022-09-03T17:43:59.840Z,18.69
2022-09-03T17:49:03.955Z,18.50
2022-09-03T17:54:13.433Z,18.34
2022-09-03T17:59:26.771Z,18.18
2022-09-03T18:04:46.484Z,18.01
2022-09-03T18:09:58.895Z,17.83
2022-09-03T18:15:10.865Z,17.68
2022-09-03T18:20:33.515Z,17.50
2022-09-03T18:25:56.607Z,17.42
2022-09-03T18:31:18.617Z,17.36
2022-09-03T18:36:39.574Z,17.31
2022-09-03T18:42:12.914Z,17.10
2022-09-03T18:48:09.095Z,16.84
2022-09-03T18:53:34.935Z,16.84
2022-09-03T18:59:01.301Z,16.85
2022-09-03T19:04:33.910Z,16.35
2022-09-03T19:10:04.489Z,16.23
2022-09-03T19:15:31.544Z,16.41
2022-09-03T19:20:55.979Z,16.01
2022-09-03T19:26:23.779Z,16.11
2022-09-03T19:31:59.781Z,16.11
2022-09-03T19:37:27.229Z,16.05
2022-09-03T19:43:01.661Z,16.05
2022-09-03T19:48:32.083Z,15.94
2022-09-03T19:53:54.883Z,15.78
2022-09-03T19:59:19.545Z,15.61
2022-09-03T20:04:46.417Z,15.65
2022-09-03T20:10:10.188Z,15.65
2022-09-03T20:15:13.367Z,15.62
2022-09-03T20:20:24.931Z,15.54
2022-09-03T20:25:46.114Z,15.51
2022-09-03T20:30:57.627Z,15.33
2022-09-03T20:36:10.489Z,15.23
2022-09-03T20:41:22.799Z,14.88
2022-09-03T20:46:45.510Z,15.04
2022-09-03T20:51:55.423Z,14.85
2022-09-03T20:57:26.051Z,14.96
2022-09-03T21:02:43.590Z,14.99
2022-09-03T21:07:57.368Z,15.07
2022-09-03T21:13:11.570Z,14.97
2022-09-03T21:18:23.470Z,14.64
2022-09-03T21:23:34.662Z,14.80
2022-09-03T21:28:41.530Z,14.65
2022-09-03T21:33:48.980Z,14.72
2022-09-03T21:39:07.184Z,14.72
2022-09-03T21:44:17.498Z,14.59
2022-09-03T21:49:25.656Z,14.01
2022-09-03T21:54:30.125Z,13.90
2022-09-03T21:59:58.300Z,14.09
2022-09-03T22:05:03.634Z,13.98
2022-09-03T22:10:14.090Z,13.63
2022-09-03T22:15:25.348Z,13.56
2022-09-03T22:20:29.022Z,13.83
2022-09-03T22:25:41.900Z,13.91
2022-09-03T22:30:54.226Z,14.00
2022-09-03T22:36:13.112Z,13.79
2022-09-03T22:41:31.012Z,13.89
2022-09-03T22:46:47.914Z,13.89
2022-09-03T22:52:01.728Z,13.82
2022-09-03T22:57:07.703Z,13.60
2022-09-03T23:02:16.601Z,13.73
2022-09-03T23:07:25.547Z,13.77
2022-09-03T23:12:36.319Z,13.72
2022-09-03T23:17:46.105Z,13.84
2022-09-03T23:22:54.534Z,13.86
2022-09-03T23:28:02.655Z,13.84
2022-09-03T23:33:08.572Z,13.85
2022-09-03T23:38:21.141Z,13.83
2022-09-03T23:43:48.244Z,13.88
2022-09-03T23:49:08.895Z,13.92
2022-09-03T23:54:20.143Z,13.76
2022-09-03T23:59:35.035Z,13.66
